createdAt,value
2023-07-03T00:00:40.380Z,59.26
2023-07-03T00:03:07.908Z,59.28
2023-07-03T00:05:36.456Z,59.07
2023-07-03T00:08:03.970Z,59.07
2023-07-03T00:10:31.427Z,59.21
2023-07-03T00:12:58.918Z,58.96
2023-07-03T00:15:26.382Z,59.33
2023-07-03T00:17:53.926Z,58.89
2023-07-03T00:20:21.467Z,58.55
2023-07-03T00:22:49.587Z,59.27
2023-07-03T00:25:17.160Z,59.20
2023-07-03T00:27:45.754Z,59.32
2023-07-03T00:30:14.488Z,59.55
2023-07-03T00:32:42.099Z,58.78
2023-07-03T00:35:10.072Z,59.06
2023-07-03T00:37:37.543Z,59.66
2023-07-03T00:40:08.386Z,59.65
2023-07-03T00:42:36.148Z,60.20
2023-07-03T00:45:10.058Z,60.09
2023-07-03T00:47:39.609Z,59.86
2023-07-03T00:50:08.088Z,60.13
2023-07-03T00:52:35.829Z,59.72
2023-07-03T00:55:04.490Z,59.56
2023-07-03T00:57:32.525Z,60.57
2023-07-03T01:00:01.082Z,60.09
2023-07-03T01:03:03.704Z,60.73
2023-07-03T01:05:41.557Z,60.54
2023-07-03T01:08:13.107Z,60.10
2023-07-03T01:10:42.658Z,60.39
2023-07-03T01:13:18.757Z,60.06
2023-07-03T01:15:48.202Z,61.23
2023-07-03T01:18:16.902Z,61.59
2023-07-03T01:21:23.755Z,61.09
2023-07-03T01:24:18.772Z,61.52
2023-07-03T01:26:47.943Z,61.16
2023-07-03T01:29:17.552Z,62.57
2023-07-03T01:31:46.150Z,61.63
2023-07-03T01:34:14.498Z,61.22
2023-07-03T01:36:43.284Z,62.34
2023-07-03T01:39:11.309Z,63.14
2023-07-03T01:41:39.843Z,62.77
2023-07-03T01:44:07.901Z,63.99
2023-07-03T01:46:36.358Z,63.49
2023-07-03T01:49:04.002Z,63.48
2023-07-03T01:52:23.109Z,64.07
2023-07-03T01:55:21.837Z,63.29
2023-07-03T01:58:33.972Z,64.06
2023-07-03T02:01:23.077Z,63.85
2023-07-03T02:04:12.067Z,64.38
2023-07-03T02:06:45.860Z,65.95
2023-07-03T04:43:53.015Z,89.56
2023-07-03T04:46:25.217Z,86.71
2023-07-03T04:49:00.706Z,84.94
2023-07-03T04:51:32.639Z,82.76
2023-07-03T04:54:02.108Z,81.45
2023-07-03T04:56:33.630Z,81.23
2023-07-03T04:59:01.221Z,80.16
2023-07-03T05:11:17.996Z,82.58
2023-07-03T05:13:45.727Z,80.28
2023-07-03T05:16:13.328Z,77.65
2023-07-03T05:18:41.525Z,74.85
2023-07-03T05:21:09.477Z,73.99
2023-07-03T05:23:37.403Z,73.27
2023-07-03T05:26:05.339Z,73.23
2023-07-03T05:28:33.436Z,72.36
2023-07-03T05:31:01.886Z,72.19
2023-07-03T05:33:31.768Z,72.65
2023-07-03T05:36:03.761Z,71.10
2023-07-03T05:38:32.097Z,70.98
2023-07-03T05:40:59.622Z,71.40
2023-07-03T05:43:28.136Z,70.89
2023-07-03T05:45:55.660Z,71.83
2023-07-03T05:48:26.013Z,71.60
2023-07-03T05:50:53.580Z,73.20
2023-07-03T05:53:22.573Z,71.42
2023-07-03T05:55:59.485Z,71.68
2023-07-03T05:58:28.977Z,71.29
2023-07-03T06:00:57.058Z,71.79
2023-07-03T06:03:26.415Z,71.42
2023-07-03T06:05:54.356Z,73.27
2023-07-03T06:08:22.162Z,73.32
2023-07-03T06:10:49.631Z,72.83
2023-07-03T06:13:17.877Z,72.75
2023-07-03T06:15:45.733Z,72.67
2023-07-03T06:18:13.469Z,71.86
2023-07-03T06:20:41.017Z,72.24
2023-07-03T06:23:08.669Z,72.67
2023-07-03T06:25:36.249Z,75.00
2023-07-03T06:28:04.251Z,73.08
2023-07-03T06:30:31.742Z,73.43
2023-07-03T06:32:59.292Z,73.96
2023-07-03T06:35:27.255Z,75.03
2023-07-03T06:37:57.338Z,74.27
2023-07-03T06:40:25.010Z,76.26
2023-07-03T06:42:54.475Z,76.95
2023-07-03T06:45:22.017Z,76.97
2023-07-03T06:47:49.585Z,78.94
2023-07-03T06:50:17.658Z,79.78
2023-07-03T06:52:48.670Z,80.90
2023-07-03T06:55:16.317Z,81.13
2023-07-03T06:57:43.868Z,80.06
2023-07-03T07:00:12.506Z,79.65
2023-07-03T07:02:40.176Z,80.73
2023-07-03T07:05:08.578Z,80.38
2023-07-03T07:07:36.173Z,80.58
2023-07-03T07:10:04.543Z,82.39
2023-07-03T07:12:32.080Z,81.23
2023-07-03T07:14:59.562Z,82.41
2023-07-03T07:17:35.591Z,82.43
2023-07-03T07:20:14.156Z,81.57
2023-07-03T07:22:41.623Z,81.48
2023-07-03T07:25:09.723Z,83.53
2023-07-03T07:27:37.226Z,81.31
2023-07-03T07:30:05.568Z,80.09
2023-07-03T07:32:33.048Z,74.78
2023-07-03T07:35:00.558Z,71.03
2023-07-03T07:37:28.001Z,71.48
2023-07-03T07:39:55.446Z,69.55
2023-07-03T07:42:22.953Z,67.57
2023-07-03T07:44:50.559Z,66.98
2023-07-03T07:47:18.045Z,67.44
2023-07-03T07:49:46.127Z,66.85
2023-07-03T07:52:13.686Z,66.90
2023-07-03T07:54:41.178Z,68.11
2023-07-03T07:57:08.975Z,69.44
2023-07-03T07:59:37.456Z,69.37
2023-07-03T08:02:05.404Z,69.82
2023-07-03T08:04:34.539Z,69.30
2023-07-03T08:07:02.215Z,68.89
2023-07-03T08:09:29.743Z,67.84
2023-07-03T08:11:57.306Z,68.13
2023-07-03T08:14:24.862Z,66.89
2023-07-03T08:16:52.578Z,66.56
2023-07-03T08:19:20.271Z,66.58
2023-07-03T08:21:47.781Z,64.62
2023-07-03T08:24:15.508Z,65.53
2023-07-03T08:26:50.248Z,65.46
2023-07-03T08:29:18.151Z,65.42
2023-07-03T08:31:45.752Z,64.52
2023-07-03T08:34:13.292Z,63.31
2023-07-03T08:39:11.109Z,62.20
2023-07-03T08:41:56.224Z,61.89
2023-07-03T08:44:23.889Z,60.25
2023-07-03T08:47:09.666Z,59.96
2023-07-03T08:49:39.318Z,60.18
2023-07-03T08:52:08.575Z,60.10
2023-07-03T08:54:38.898Z,61.25
2023-07-03T08:57:12.006Z,60.56
2023-07-03T08:59:39.990Z,59.79
2023-07-03T09:02:22.257Z,60.97
2023-07-03T09:05:38.558Z,60.64
2023-07-03T09:08:15.134Z,61.78
2023-07-03T09:10:51.034Z,58.34
2023-07-03T09:13:44.531Z,58.52
2023-07-03T09:16:22.697Z,57.55
2023-07-03T09:19:07.632Z,57.29
2023-07-03T09:21:36.950Z,56.03
2023-07-03T09:24:27.617Z,56.19
2023-07-03T09:27:24.807Z,56.28
2023-07-03T09:29:53.205Z,56.90
2023-07-03T09:32:31.718Z,57.33
2023-07-03T09:35:21.308Z,57.82
2023-07-03T09:37:59.536Z,58.00
2023-07-03T09:40:38.866Z,57.35
2023-07-03T09:43:27.198Z,57.23
2023-07-03T09:46:17.778Z,56.85
2023-07-03T09:48:45.933Z,57.25
2023-07-03T09:51:30.322Z,56.38
2023-07-03T09:54:06.996Z,56.37
2023-07-03T09:56:35.018Z,56.42
2023-07-03T09:59:06.897Z,55.16
2023-07-03T10:07:09.003Z,55.30
2023-07-03T10:12:45.569Z,55.77
2023-07-03T10:15:30.224Z,55.10
2023-07-03T10:18:15.210Z,54.75
2023-07-03T10:20:45.385Z,55.13
2023-07-03T10:23:29.077Z,54.52
2023-07-03T10:26:39.524Z,54.32
2023-07-03T10:29:27.591Z,54.76
2023-07-03T10:32:17.533Z,54.67
2023-07-03T10:35:29.487Z,54.11
2023-07-03T10:38:12.728Z,54.55
2023-07-03T10:40:56.959Z,53.90
2023-07-03T10:43:34.024Z,53.80
2023-07-03T10:46:03.477Z,54.54
2023-07-03T10:48:34.641Z,53.56
2023-07-03T10:51:48.226Z,53.30
2023-07-03T10:54:31.169Z,53.59
2023-07-03T10:57:06.625Z,53.43
2023-07-03T10:59:43.784Z,53.68
2023-07-03T11:02:42.725Z,52.92
2023-07-03T11:05:36.072Z,52.77
2023-07-03T11:08:55.864Z,52.96
2023-07-03T11:12:34.874Z,52.44
2023-07-03T11:16:03.806Z,52.19
2023-07-03T11:28:51.592Z,50.95
2023-07-03T11:31:21.241Z,51.81
2023-07-03T11:44:50.049Z,50.46
2023-07-03T11:47:32.267Z,51.01
2023-07-03T11:50:06.178Z,50.74
2023-07-03T11:52:42.477Z,49.52
2023-07-03T11:55:20.170Z,49.95
2023-07-03T11:58:14.517Z,49.68
2023-07-03T12:00:45.619Z,49.66
2023-07-03T12:03:15.685Z,50.23
2023-07-03T12:05:49.324Z,49.55
2023-07-03T12:08:19.626Z,50.78
2023-07-03T12:10:56.225Z,49.66
2023-07-03T12:13:47.655Z,48.24
2023-07-03T12:16:26.044Z,48.30
2023-07-03T12:19:11.551Z,49.02
2023-07-03T12:21:47.629Z,48.87
2023-07-03T12:24:33.448Z,51.04
2023-07-03T12:27:08.185Z,48.54
2023-07-03T12:29:49.369Z,47.80
2023-07-03T12:32:49.488Z,47.96
2023-07-03T12:35:28.485Z,47.89
2023-07-03T12:38:06.703Z,48.25
2023-07-03T12:40:41.873Z,49.15
2023-07-03T12:43:10.788Z,48.41
2023-07-03T12:45:38.459Z,48.23
2023-07-03T12:48:24.356Z,49.42
2023-07-03T12:50:57.857Z,50.44
2023-07-03T12:53:35.081Z,48.80
2023-07-03T12:56:10.522Z,48.02
2023-07-03T12:58:39.004Z,48.66
2023-07-03T13:01:09.300Z,49.51
2023-07-03T13:03:43.064Z,49.95
2023-07-03T13:06:29.493Z,49.04
2023-07-03T13:08:59.852Z,49.36
2023-07-03T13:11:46.097Z,49.98
2023-07-03T13:14:29.394Z,49.10
2023-07-03T13:17:02.487Z,49.12
2023-07-03T13:19:37.436Z,47.67
2023-07-03T13:22:19.509Z,48.45
2023-07-03T13:24:52.073Z,49.30
2023-07-03T13:27:28.245Z,49.60
2023-07-03T13:30:36.782Z,50.03
2023-07-03T13:33:15.168Z,50.14
2023-07-03T13:35:49.691Z,49.97
2023-07-03T13:38:27.726Z,49.64
2023-07-03T13:41:00.347Z,49.20
2023-07-03T13:43:33.652Z,50.08
2023-07-03T13:46:02.124Z,49.71
2023-07-03T13:48:30.654Z,50.50
2023-07-03T13:50:58.509Z,51.04
2023-07-03T13:53:27.748Z,50.35
2023-07-03T13:55:55.316Z,50.67
2023-07-03T13:58:22.879Z,50.72
2023-07-03T14:00:50.532Z,50.36
2023-07-03T14:03:18.294Z,51.13
2023-07-03T14:05:45.968Z,51.17
2023-07-03T14:08:13.780Z,51.26
2023-07-03T14:10:41.368Z,51.07
2023-07-03T14:13:11.010Z,51.35
2023-07-03T14:15:39.547Z,50.91
2023-07-03T14:18:07.188Z,51.67
2023-07-03T14:20:34.781Z,52.26
2023-07-03T14:23:04.508Z,51.57
2023-07-03T14:25:32.698Z,51.90
2023-07-03T14:28:01.396Z,52.75
2023-07-03T14:30:28.948Z,52.88
2023-07-03T14:32:56.763Z,52.67
2023-07-03T14:35:25.385Z,53.52
2023-07-03T14:37:53.234Z,52.96
2023-07-03T14:40:21.020Z,52.95
2023-07-03T14:42:48.773Z,53.43
2023-07-03T14:45:16.804Z,53.37
2023-07-03T14:47:44.406Z,52.46
2023-07-03T14:50:13.307Z,51.86
2023-07-03T14:52:49.265Z,51.64
2023-07-03T14:55:19.049Z,52.19
2023-07-03T14:57:46.990Z,51.81
2023-07-03T15:00:15.745Z,51.95
2023-07-03T15:02:47.235Z,50.45
2023-07-03T15:05:16.356Z,49.14
2023-07-03T15:07:49.945Z,48.03
2023-07-03T15:10:18.859Z,47.72
2023-07-03T15:12:47.233Z,47.00
2023-07-03T15:15:15.337Z,46.86
2023-07-03T15:17:43.107Z,46.10
2023-07-03T15:20:11.862Z,46.10
2023-07-03T15:22:39.348Z,45.17
2023-07-03T15:25:07.761Z,45.74
2023-07-03T15:27:35.373Z,46.32
2023-07-03T15:30:03.935Z,45.98
2023-07-03T15:32:32.818Z,44.67
2023-07-03T15:35:00.367Z,44.87
2023-07-03T15:37:27.975Z,44.72
2023-07-03T15:39:55.958Z,45.00
2023-07-03T15:42:24.307Z,44.34
2023-07-03T15:44:59.283Z,44.25
2023-07-03T15:47:27.844Z,44.10
2023-07-03T15:49:58.524Z,44.63
2023-07-03T15:52:26.863Z,44.02
2023-07-03T15:54:54.724Z,44.43
2023-07-03T15:57:22.944Z,44.75
2023-07-03T15:59:50.792Z,44.26
2023-07-03T16:02:18.367Z,43.82
2023-07-03T16:04:45.981Z,44.32
2023-07-03T16:07:13.483Z,44.53
2023-07-03T16:09:40.953Z,44.21
2023-07-03T16:12:08.631Z,43.75
2023-07-03T16:14:36.121Z,43.34
2023-07-03T16:17:03.678Z,43.50
2023-07-03T16:19:32.009Z,43.33
2023-07-03T16:21:59.526Z,43.77
2023-07-03T16:24:26.989Z,43.85
2023-07-03T16:26:54.460Z,43.24
2023-07-03T16:29:21.960Z,43.05
2023-07-03T16:31:49.619Z,43.05
2023-07-03T16:34:17.162Z,43.49
2023-07-03T16:36:44.608Z,43.35
2023-07-03T16:39:12.480Z,44.26
2023-07-03T16:41:40.935Z,44.84
2023-07-03T16:44:08.436Z,44.78
2023-07-03T16:46:39.580Z,45.74
2023-07-03T16:49:08.087Z,45.30
2023-07-03T16:51:35.583Z,45.91
2023-07-03T16:54:03.505Z,47.09
2023-07-03T16:56:31.115Z,47.13
2023-07-03T16:58:59.649Z,46.80
2023-07-03T17:01:30.877Z,46.69
2023-07-03T17:03:59.368Z,46.84
2023-07-03T17:06:36.406Z,46.92
2023-07-03T17:09:05.121Z,45.93
2023-07-03T17:11:32.838Z,45.32
2023-07-03T17:14:01.214Z,46.56
2023-07-03T17:16:29.988Z,45.98
2023-07-03T17:18:57.954Z,46.50
2023-07-03T17:21:26.556Z,46.56
2023-07-03T17:24:06.285Z,46.70
2023-07-03T17:26:34.424Z,47.13
2023-07-03T17:29:04.841Z,47.55
2023-07-03T17:31:32.937Z,47.16
2023-07-03T17:34:01.272Z,46.70
2023-07-03T17:36:29.428Z,47.87
2023-07-03T17:38:56.992Z,48.33
2023-07-03T17:41:24.965Z,48.25
2023-07-03T17:43:53.112Z,47.81
2023-07-03T17:46:20.627Z,48.77
2023-07-03T17:48:48.503Z,48.70
2023-07-03T17:51:16.102Z,49.03
2023-07-03T17:53:45.739Z,49.14
2023-07-03T17:56:13.993Z,49.49
2023-07-03T17:58:43.923Z,49.03
2023-07-03T18:01:13.104Z,49.40
2023-07-03T18:03:41.578Z,49.20
2023-07-03T18:06:13.652Z,49.65
2023-07-03T18:08:41.640Z,48.88
2023-07-03T18:11:09.265Z,49.98
2023-07-03T18:13:37.665Z,50.55
2023-07-03T18:16:05.499Z,50.96
2023-07-03T18:18:33.183Z,51.03
2023-07-03T18:21:01.110Z,51.33
2023-07-03T18:23:28.784Z,51.71
2023-07-03T18:25:56.813Z,51.08
2023-07-03T18:28:25.205Z,51.78
2023-07-03T18:31:04.450Z,52.00
2023-07-03T18:33:34.908Z,52.90
2023-07-03T18:36:03.408Z,53.21
2023-07-03T18:38:31.745Z,53.11
2023-07-03T18:41:06.864Z,53.39
2023-07-03T18:43:34.642Z,53.35
2023-07-03T18:46:02.222Z,54.14
2023-07-03T18:48:29.848Z,54.32
2023-07-03T18:50:57.375Z,54.09
2023-07-03T18:53:25.411Z,54.35
2023-07-03T18:55:54.202Z,55.12
2023-07-03T18:58:21.977Z,54.81
2023-07-03T19:00:50.105Z,55.26
2023-07-03T19:03:17.914Z,55.48
2023-07-03T19:06:09.829Z,55.33
2023-07-03T19:08:37.913Z,55.70
2023-07-03T19:11:07.775Z,54.95
2023-07-03T19:13:35.800Z,55.31
2023-07-03T19:16:03.514Z,56.09
2023-07-03T19:18:31.278Z,54.75
2023-07-03T19:20:58.732Z,56.00
2023-07-03T19:23:26.670Z,56.22
2023-07-03T19:26:00.126Z,55.43
2023-07-03T19:28:27.990Z,56.13
2023-07-03T19:31:00.675Z,56.82
2023-07-03T19:33:31.002Z,57.22
2023-07-03T19:36:00.557Z,57.41
2023-07-03T19:38:28.635Z,58.16
2023-07-03T19:40:57.055Z,58.86
2023-07-03T19:43:24.510Z,58.97
2023-07-03T19:45:52.078Z,59.53
2023-07-03T19:48:19.731Z,58.95
2023-07-03T19:50:49.187Z,60.24
2023-07-03T19:53:17.708Z,59.82
2023-07-03T19:55:45.739Z,60.37
2023-07-03T19:58:13.585Z,61.15
2023-07-03T20:00:41.433Z,61.69
2023-07-03T20:03:11.500Z,62.55
2023-07-03T20:05:42.828Z,62.59
2023-07-03T20:08:10.297Z,62.17
2023-07-03T20:10:39.005Z,62.32
2023-07-03T20:13:06.605Z,62.94
2023-07-03T20:15:34.105Z,63.22
2023-07-03T20:18:01.764Z,63.61
2023-07-03T20:20:29.625Z,63.60
2023-07-03T20:22:58.176Z,64.06
2023-07-03T20:25:25.901Z,63.51
2023-07-03T20:27:54.397Z,63.15
2023-07-03T20:30:22.447Z,63.67
2023-07-03T20:32:50.099Z,64.23
2023-07-03T20:35:19.209Z,64.77
2023-07-03T20:37:46.859Z,65.40
2023-07-03T20:40:14.514Z,64.50
2023-07-03T20:42:42.367Z,65.08
2023-07-03T20:45:11.417Z,67.20
2023-07-03T20:47:39.045Z,67.27
2023-07-03T20:50:07.949Z,66.42
2023-07-03T20:52:41.059Z,65.94
2023-07-03T20:55:36.663Z,66.92
2023-07-03T20:58:04.385Z,65.72
2023-07-03T21:00:32.014Z,66.77
2023-07-03T21:02:59.675Z,67.45
2023-07-03T21:05:27.989Z,67.89
2023-07-03T21:07:56.395Z,67.25
2023-07-03T21:10:23.840Z,67.74
2023-07-03T21:12:51.322Z,67.43
2023-07-03T21:15:20.059Z,66.33
2023-07-03T21:17:48.237Z,67.14
2023-07-03T21:20:15.842Z,66.82
2023-07-03T21:22:43.305Z,67.62
2023-07-03T21:25:12.027Z,65.55
2023-07-03T21:27:39.470Z,67.71
2023-07-03T21:30:08.371Z,67.61
2023-07-03T21:32:36.724Z,66.84
2023-07-03T21:35:04.469Z,67.64
2023-07-03T21:37:32.829Z,68.46
2023-07-03T21:40:00.398Z,70.18
2023-07-03T21:42:27.892Z,70.61
2023-07-03T21:44:55.373Z,71.53
2023-07-03T21:47:22.929Z,72.33
2023-07-03T21:49:50.617Z,72.10
2023-07-03T21:52:18.074Z,73.75
2023-07-03T21:54:48.833Z,73.70
2023-07-03T21:57:19.373Z,73.29
2023-07-03T21:59:50.394Z,74.61
2023-07-03T22:02:17.933Z,74.15
2023-07-03T22:04:45.600Z,73.09
2023-07-03T22:07:13.786Z,72.93
2023-07-03T22:09:41.302Z,73.89
2023-07-03T22:12:12.965Z,72.97
2023-07-03T22:14:40.774Z,74.75
2023-07-03T22:17:08.400Z,76.71
2023-07-03T22:19:39.794Z,76.82
2023-07-03T22:22:08.441Z,75.66
2023-07-03T22:24:35.961Z,76.97
2023-07-03T22:27:07.184Z,77.39
2023-07-03T22:29:36.795Z,79.69
2023-07-03T22:32:04.842Z,80.26
2023-07-03T22:34:32.360Z,80.52
2023-07-03T22:36:59.845Z,82.28
2023-07-03T22:39:27.333Z,82.96
2023-07-03T22:41:54.833Z,86.29
2023-07-03T22:44:22.332Z,85.86
2023-07-03T22:46:53.575Z,85.34
2023-07-03T22:49:25.517Z,86.53
2023-07-03T22:51:53.681Z,86.33
2023-07-03T22:54:22.973Z,86.80
2023-07-03T22:56:50.728Z,89.74
2023-07-03T22:59:18.329Z,92.75
2023-07-03T23:01:49.581Z,94.27
2023-07-03T23:04:17.905Z,94.34
2023-07-03T23:06:47.234Z,99.13
2023-07-03T23:09:17.958Z,98.29
2023-07-03T23:11:45.644Z,100.00
2023-07-03T23:14:16.782Z,99.57
2023-07-03T23:16:47.531Z,100.00
2023-07-03T23:19:17.896Z,100.00
2023-07-03T23:21:53.084Z,100.00
2023-07-03T23:24:21.955Z,100.00
2023-07-03T23:26:53.769Z,100.00
2023-07-03T23:29:22.315Z,100.00
2023-07-03T23:31:51.019Z,100.00
2023-07-03T23:34:18.824Z,100.00
2023-07-03T23:36:49.661Z,100.00
2023-07-03T23:39:19.260Z,100.00
2023-07-03T23:41:47.233Z,100.00
2023-07-03T23:44:15.914Z,100.00
2023-07-03T23:46:43.492Z,100.00
2023-07-03T23:49:11.324Z,100.00
2023-07-03T23:51:38.821Z,100.00
2023-07-03T23:54:07.080Z,100.00
2023-07-03T23:56:35.479Z,100.00
2023-07-03T23:59:05.053Z,100.00
